sensor_id;sensor_type;location;lat;lon;timestamp;P1;durP1;ratioP1;P2;durP2;ratioP2
15295;SDS011;7749;49.964;7.890;2023-04-25T00:01:24;4.47;;;4.07;;
15295;SDS011;7749;49.964;7.890;2023-04-25T00:03:52;5.00;;;4.53;;
15295;SDS011;7749;49.964;7.890;2023-04-25T00:06:20;4.90;;;4.50;;
15295;SDS011;7749;49.964;7.890;2023-04-25T00:08:48;4.93;;;4.37;;
15295;SDS011;7749;49.964;7.890;2023-04-25T00:11:15;5.03;;;4.63;;
15295;SDS011;7749;49.964;7.890;2023-04-25T00:13:43;5.03;;;4.40;;
15295;SDS011;7749;49.964;7.890;2023-04-25T00:16:11;4.67;;;4.27;;
15295;SDS011;7749;49.964;7.890;2023-04-25T00:18:41;5.30;;;4.80;;
15295;SDS011;7749;49.964;7.890;2023-04-25T00:21:09;4.97;;;4.57;;
15295;SDS011;7749;49.964;7.890;2023-04-25T00:23:37;5.00;;;4.60;;
15295;SDS011;7749;49.964;7.890;2023-04-25T00:26:05;5.67;;;5.10;;
15295;SDS011;7749;49.964;7.890;2023-04-25T00:28:33;5.70;;;4.70;;
15295;SDS011;7749;49.964;7.890;2023-04-25T00:31:01;5.20;;;4.70;;
15295;SDS011;7749;49.964;7.890;2023-04-25T00:33:29;5.60;;;5.10;;
15295;SDS011;7749;49.964;7.890;2023-04-25T00:35:57;5.07;;;4.60;;
15295;SDS011;7749;49.964;7.890;2023-04-25T00:38:25;5.63;;;5.10;;
15295;SDS011;7749;49.964;7.890;2023-04-25T00:43:38;5.17;;;4.50;;
15295;SDS011;7749;49.964;7.890;2023-04-25T00:46:07;5.57;;;4.80;;
15295;SDS011;7749;49.964;7.890;2023-04-25T00:48:38;4.93;;;4.53;;
15295;SDS011;7749;49.964;7.890;2023-04-25T00:51:05;5.17;;;4.60;;
15295;SDS011;7749;49.964;7.890;2023-04-25T00:53:33;5.43;;;5.00;;
15295;SDS011;7749;49.964;7.890;2023-04-25T00:56:01;5.90;;;4.70;;
15295;SDS011;7749;49.964;7.890;2023-04-25T00:58:32;6.57;;;5.03;;
15295;SDS011;7749;49.964;7.890;2023-04-25T01:01:03;5.43;;;4.93;;
15295;SDS011;7749;49.964;7.890;2023-04-25T01:03:32;6.90;;;6.17;;
15295;SDS011;7749;49.964;7.890;2023-04-25T01:06:02;6.17;;;5.57;;
15295;SDS011;7749;49.964;7.890;2023-04-25T01:08:30;5.70;;;5.10;;
15295;SDS011;7749;49.964;7.890;2023-04-25T01:10:58;6.23;;;5.53;;
15295;SDS011;7749;49.964;7.890;2023-04-25T01:13:26;6.57;;;5.80;;
15295;SDS011;7749;49.964;7.890;2023-04-25T01:15:54;6.47;;;5.83;;
15295;SDS011;7749;49.964;7.890;2023-04-25T01:18:22;6.80;;;6.10;;
15295;SDS011;7749;49.964;7.890;2023-04-25T01:20:52;6.30;;;5.70;;
15295;SDS011;7749;49.964;7.890;2023-04-25T01:23:21;6.03;;;5.43;;
15295;SDS011;7749;49.964;7.890;2023-04-25T01:25:50;6.07;;;5.53;;
15295;SDS011;7749;49.964;7.890;2023-04-25T01:28:18;6.63;;;6.03;;
15295;SDS011;7749;49.964;7.890;2023-04-25T01:30:46;6.83;;;6.13;;
15295;SDS011;7749;49.964;7.890;2023-04-25T01:33:17;7.23;;;6.50;;
15295;SDS011;7749;49.964;7.890;2023-04-25T01:35:51;6.13;;;5.57;;
15295;SDS011;7749;49.964;7.890;2023-04-25T01:38:19;7.10;;;6.07;;
15295;SDS011;7749;49.964;7.890;2023-04-25T01:40:47;6.43;;;5.83;;
15295;SDS011;7749;49.964;7.890;2023-04-25T01:43:17;8.43;;;5.83;;
15295;SDS011;7749;49.964;7.890;2023-04-25T01:45:45;6.20;;;5.60;;
15295;SDS011;7749;49.964;7.890;2023-04-25T01:48:19;6.10;;;5.60;;
15295;SDS011;7749;49.964;7.890;2023-04-25T01:50:47;5.93;;;5.40;;
15295;SDS011;7749;49.964;7.890;2023-04-25T01:53:15;6.40;;;5.80;;
15295;SDS011;7749;49.964;7.890;2023-04-25T01:55:42;6.13;;;5.53;;
15295;SDS011;7749;49.964;7.890;2023-04-25T01:58:10;6.83;;;6.10;;
15295;SDS011;7749;49.964;7.890;2023-04-25T02:00:39;6.90;;;6.30;;
15295;SDS011;7749;49.964;7.890;2023-04-25T02:03:08;8.70;;;7.90;;
15295;SDS011;7749;49.964;7.890;2023-04-25T02:05:37;6.07;;;5.57;;
15295;SDS011;7749;49.964;7.890;2023-04-25T02:08:05;6.23;;;5.70;;
15295;SDS011;7749;49.964;7.890;2023-04-25T02:10:34;6.67;;;5.97;;
15295;SDS011;7749;49.964;7.890;2023-04-25T02:13:02;6.43;;;5.33;;
15295;SDS011;7749;49.964;7.890;2023-04-25T02:15:32;6.60;;;5.60;;
15295;SDS011;7749;49.964;7.890;2023-04-25T02:18:00;6.10;;;5.50;;
15295;SDS011;7749;49.964;7.890;2023-04-25T02:20:28;6.37;;;5.77;;
15295;SDS011;7749;49.964;7.890;2023-04-25T02:22:57;6.70;;;5.70;;
15295;SDS011;7749;49.964;7.890;2023-04-25T02:25:25;5.97;;;5.37;;
15295;SDS011;7749;49.964;7.890;2023-04-25T02:27:53;5.87;;;5.37;;
15295;SDS011;7749;49.964;7.890;2023-04-25T02:30:20;6.43;;;5.60;;
15295;SDS011;7749;49.964;7.890;2023-04-25T02:32:48;5.80;;;5.30;;
15295;SDS011;7749;49.964;7.890;2023-04-25T02:35:19;5.83;;;5.23;;
15295;SDS011;7749;49.964;7.890;2023-04-25T02:37:47;5.60;;;5.00;;
15295;SDS011;7749;49.964;7.890;2023-04-25T02:40:14;6.53;;;5.80;;
15295;SDS011;7749;49.964;7.890;2023-04-25T02:42:42;6.33;;;4.93;;
15295;SDS011;7749;49.964;7.890;2023-04-25T02:45:12;6.07;;;5.47;;
15295;SDS011;7749;49.964;7.890;2023-04-25T02:47:40;6.20;;;5.57;;
15295;SDS011;7749;49.964;7.890;2023-04-25T02:50:09;5.70;;;5.20;;
15295;SDS011;7749;49.964;7.890;2023-04-25T02:52:38;7.30;;;6.10;;
15295;SDS011;7749;49.964;7.890;2023-04-25T02:55:05;6.43;;;5.83;;
15295;SDS011;7749;49.964;7.890;2023-04-25T02:57:33;6.50;;;5.77;;
15295;SDS011;7749;49.964;7.890;2023-04-25T03:00:01;5.87;;;5.37;;
15295;SDS011;7749;49.964;7.890;2023-04-25T03:02:31;6.00;;;5.40;;
15295;SDS011;7749;49.964;7.890;2023-04-25T03:04:59;6.20;;;5.60;;
15295;SDS011;7749;49.964;7.890;2023-04-25T03:07:27;6.47;;;5.50;;
15295;SDS011;7749;49.964;7.890;2023-04-25T03:09:57;6.87;;;5.67;;
15295;SDS011;7749;49.964;7.890;2023-04-25T03:12:25;6.70;;;6.13;;
15295;SDS011;7749;49.964;7.890;2023-04-25T03:14:52;6.30;;;5.70;;
15295;SDS011;7749;49.964;7.890;2023-04-25T03:17:20;7.30;;;6.27;;
15295;SDS011;7749;49.964;7.890;2023-04-25T03:19:48;6.87;;;6.17;;
15295;SDS011;7749;49.964;7.890;2023-04-25T03:22:15;7.40;;;6.37;;
15295;SDS011;7749;49.964;7.890;2023-04-25T03:24:43;7.23;;;6.53;;
15295;SDS011;7749;49.964;7.890;2023-04-25T03:27:11;6.77;;;6.10;;
15295;SDS011;7749;49.964;7.890;2023-04-25T03:29:39;8.13;;;7.33;;
15295;SDS011;7749;49.964;7.890;2023-04-25T03:32:10;7.77;;;6.97;;
15295;SDS011;7749;49.964;7.890;2023-04-25T03:34:37;7.40;;;6.70;;
15295;SDS011;7749;49.964;7.890;2023-04-25T03:37:05;7.87;;;6.57;;
15295;SDS011;7749;49.964;7.890;2023-04-25T03:39:36;7.80;;;7.07;;
15295;SDS011;7749;49.964;7.890;2023-04-25T03:42:04;11.67;;;8.77;;
15295;SDS011;7749;49.964;7.890;2023-04-25T03:44:32;9.40;;;7.70;;
15295;SDS011;7749;49.964;7.890;2023-04-25T03:47:00;9.27;;;8.00;;
15295;SDS011;7749;49.964;7.890;2023-04-25T03:49:28;8.07;;;7.27;;
15295;SDS011;7749;49.964;7.890;2023-04-25T03:51:55;7.80;;;7.00;;
15295;SDS011;7749;49.964;7.890;2023-04-25T03:54:25;8.27;;;7.43;;
15295;SDS011;7749;49.964;7.890;2023-04-25T03:56:53;8.27;;;7.40;;
15295;SDS011;7749;49.964;7.890;2023-04-25T03:59:21;8.93;;;8.03;;
15295;SDS011;7749;49.964;7.890;2023-04-25T04:01:49;9.70;;;8.17;;
15295;SDS011;7749;49.964;7.890;2023-04-25T04:04:17;8.97;;;8.10;;
15295;SDS011;7749;49.964;7.890;2023-04-25T04:06:45;9.60;;;8.50;;
15295;SDS011;7749;49.964;7.890;2023-04-25T04:09:13;13.87;;;9.90;;
15295;SDS011;7749;49.964;7.890;2023-04-25T04:11:41;10.90;;;9.57;;
15295;SDS011;7749;49.964;7.890;2023-04-25T04:14:08;9.20;;;8.23;;
15295;SDS011;7749;49.964;7.890;2023-04-25T04:16:37;9.70;;;8.03;;
15295;SDS011;7749;49.964;7.890;2023-04-25T04:19:05;9.20;;;8.30;;
15295;SDS011;7749;49.964;7.890;2023-04-25T04:21:33;10.10;;;8.57;;
15295;SDS011;7749;49.964;7.890;2023-04-25T04:24:03;10.73;;;8.67;;
15295;SDS011;7749;49.964;7.890;2023-04-25T04:26:32;10.13;;;8.70;;
15295;SDS011;7749;49.964;7.890;2023-04-25T04:29:01;12.77;;;9.83;;
15295;SDS011;7749;49.964;7.890;2023-04-25T04:31:29;14.77;;;9.40;;
15295;SDS011;7749;49.964;7.890;2023-04-25T04:33:57;15.10;;;10.13;;
15295;SDS011;7749;49.964;7.890;2023-04-25T04:36:27;14.00;;;10.90;;
15295;SDS011;7749;49.964;7.890;2023-04-25T04:38:55;14.13;;;10.00;;
15295;SDS011;7749;49.964;7.890;2023-04-25T04:41:23;12.67;;;9.57;;
15295;SDS011;7749;49.964;7.890;2023-04-25T04:43:51;13.67;;;10.10;;
15295;SDS011;7749;49.964;7.890;2023-04-25T04:46:23;15.57;;;10.93;;
15295;SDS011;7749;49.964;7.890;2023-04-25T04:48:51;14.17;;;10.33;;
15295;SDS011;7749;49.964;7.890;2023-04-25T04:51:20;15.00;;;10.10;;
15295;SDS011;7749;49.964;7.890;2023-04-25T04:53:48;15.97;;;10.27;;
15295;SDS011;7749;49.964;7.890;2023-04-25T04:56:16;15.57;;;9.77;;
15295;SDS011;7749;49.964;7.890;2023-04-25T04:58:43;11.33;;;9.20;;
15295;SDS011;7749;49.964;7.890;2023-04-25T05:01:11;13.77;;;8.87;;
15295;SDS011;7749;49.964;7.890;2023-04-25T05:03:39;17.80;;;9.80;;
15295;SDS011;7749;49.964;7.890;2023-04-25T05:06:08;14.67;;;9.07;;
15295;SDS011;7749;49.964;7.890;2023-04-25T05:08:37;15.40;;;9.57;;
15295;SDS011;7749;49.964;7.890;2023-04-25T05:11:07;14.53;;;9.73;;
15295;SDS011;7749;49.964;7.890;2023-04-25T05:13:38;13.60;;;9.47;;
15295;SDS011;7749;49.964;7.890;2023-04-25T05:16:05;19.53;;;9.57;;
15295;SDS011;7749;49.964;7.890;2023-04-25T05:18:33;14.63;;;8.97;;
15295;SDS011;7749;49.964;7.890;2023-04-25T05:21:04;14.87;;;9.10;;
15295;SDS011;7749;49.964;7.890;2023-04-25T05:23:34;17.20;;;11.50;;
15295;SDS011;7749;49.964;7.890;2023-04-25T05:26:02;13.03;;;8.70;;
15295;SDS011;7749;49.964;7.890;2023-04-25T05:28:30;16.43;;;8.40;;
15295;SDS011;7749;49.964;7.890;2023-04-25T05:30:58;17.00;;;8.13;;
15295;SDS011;7749;49.964;7.890;2023-04-25T05:33:26;12.77;;;8.07;;
15295;SDS011;7749;49.964;7.890;2023-04-25T05:35:53;13.13;;;7.70;;
15295;SDS011;7749;49.964;7.890;2023-04-25T05:38:21;15.27;;;8.43;;
15295;SDS011;7749;49.964;7.890;2023-04-25T05:40:49;12.00;;;7.13;;
15295;SDS011;7749;49.964;7.890;2023-04-25T05:43:17;12.50;;;7.60;;
15295;SDS011;7749;49.964;7.890;2023-04-25T05:45:48;15.77;;;8.30;;
15295;SDS011;7749;49.964;7.890;2023-04-25T05:48:16;15.03;;;7.20;;
15295;SDS011;7749;49.964;7.890;2023-04-25T05:50:47;9.60;;;6.90;;
15295;SDS011;7749;49.964;7.890;2023-04-25T05:53:14;13.03;;;6.77;;
15295;SDS011;7749;49.964;7.890;2023-04-25T05:55:42;12.47;;;6.60;;
15295;SDS011;7749;49.964;7.890;2023-04-25T05:58:10;11.93;;;7.20;;
15295;SDS011;7749;49.964;7.890;2023-04-25T06:00:37;12.53;;;7.03;;
15295;SDS011;7749;49.964;7.890;2023-04-25T06:03:05;11.97;;;6.40;;
15295;SDS011;7749;49.964;7.890;2023-04-25T06:05:46;12.20;;;6.23;;
15295;SDS011;7749;49.964;7.890;2023-04-25T06:08:14;9.77;;;5.60;;
15295;SDS011;7749;49.964;7.890;2023-04-25T06:10:42;10.87;;;5.80;;
15295;SDS011;7749;49.964;7.890;2023-04-25T06:13:10;16.67;;;6.30;;
15295;SDS011;7749;49.964;7.890;2023-04-25T06:15:38;11.67;;;6.20;;
15295;SDS011;7749;49.964;7.890;2023-04-25T06:18:06;11.30;;;6.10;;
15295;SDS011;7749;49.964;7.890;2023-04-25T06:20:34;9.93;;;5.43;;
15295;SDS011;7749;49.964;7.890;2023-04-25T06:23:02;10.23;;;5.20;;
15295;SDS011;7749;49.964;7.890;2023-04-25T06:25:29;11.73;;;5.33;;
15295;SDS011;7749;49.964;7.890;2023-04-25T06:28:00;12.60;;;4.63;;
15295;SDS011;7749;49.964;7.890;2023-04-25T06:30:28;12.43;;;5.13;;
15295;SDS011;7749;49.964;7.890;2023-04-25T06:32:55;11.27;;;4.60;;
15295;SDS011;7749;49.964;7.890;2023-04-25T06:35:23;10.37;;;4.33;;
15295;SDS011;7749;49.964;7.890;2023-04-25T06:37:51;12.10;;;4.93;;
15295;SDS011;7749;49.964;7.890;2023-04-25T06:40:18;9.83;;;4.40;;
15295;SDS011;7749;49.964;7.890;2023-04-25T06:42:48;7.30;;;4.40;;
15295;SDS011;7749;49.964;7.890;2023-04-25T06:45:16;12.53;;;5.93;;
15295;SDS011;7749;49.964;7.890;2023-04-25T06:47:44;8.97;;;4.40;;
15295;SDS011;7749;49.964;7.890;2023-04-25T06:50:12;9.83;;;4.40;;
15295;SDS011;7749;49.964;7.890;2023-04-25T06:52:39;7.03;;;4.00;;
15295;SDS011;7749;49.964;7.890;2023-04-25T06:55:07;6.77;;;4.30;;
15295;SDS011;7749;49.964;7.890;2023-04-25T06:57:35;12.73;;;5.03;;
15295;SDS011;7749;49.964;7.890;2023-04-25T07:00:04;8.37;;;4.83;;
15295;SDS011;7749;49.964;7.890;2023-04-25T07:02:35;10.43;;;4.67;;
15295;SDS011;7749;49.964;7.890;2023-04-25T07:05:03;9.20;;;5.13;;
15295;SDS011;7749;49.964;7.890;2023-04-25T07:07:34;8.87;;;5.20;;
15295;SDS011;7749;49.964;7.890;2023-04-25T07:10:01;9.50;;;4.60;;
15295;SDS011;7749;49.964;7.890;2023-04-25T07:12:29;8.77;;;4.90;;
15295;SDS011;7749;49.964;7.890;2023-04-25T07:14:57;10.13;;;4.70;;
15295;SDS011;7749;49.964;7.890;2023-04-25T07:17:25;9.00;;;4.70;;
15295;SDS011;7749;49.964;7.890;2023-04-25T07:19:55;8.50;;;4.70;;
15295;SDS011;7749;49.964;7.890;2023-04-25T07:22:23;9.50;;;4.63;;
15295;SDS011;7749;49.964;7.890;2023-04-25T07:24:54;9.47;;;5.40;;
15295;SDS011;7749;49.964;7.890;2023-04-25T07:27:28;8.07;;;5.00;;
15295;SDS011;7749;49.964;7.890;2023-04-25T07:29:58;8.93;;;4.90;;
15295;SDS011;7749;49.964;7.890;2023-04-25T07:32:26;9.80;;;5.47;;
15295;SDS011;7749;49.964;7.890;2023-04-25T07:34:56;6.73;;;4.07;;
15295;SDS011;7749;49.964;7.890;2023-04-25T07:37:25;8.97;;;4.60;;
15295;SDS011;7749;49.964;7.890;2023-04-25T07:39:54;8.57;;;4.10;;
15295;SDS011;7749;49.964;7.890;2023-04-25T07:42:22;11.40;;;5.00;;
15295;SDS011;7749;49.964;7.890;2023-04-25T07:44:50;6.30;;;4.20;;
15295;SDS011;7749;49.964;7.890;2023-04-25T07:47:18;11.07;;;4.90;;
15295;SDS011;7749;49.964;7.890;2023-04-25T07:49:49;8.57;;;4.50;;
15295;SDS011;7749;49.964;7.890;2023-04-25T07:52:16;8.50;;;5.00;;
15295;SDS011;7749;49.964;7.890;2023-04-25T07:54:44;8.30;;;4.73;;
15295;SDS011;7749;49.964;7.890;2023-04-25T07:57:12;6.60;;;4.00;;
15295;SDS011;7749;49.964;7.890;2023-04-25T07:59:42;8.67;;;4.50;;
15295;SDS011;7749;49.964;7.890;2023-04-25T08:02:09;6.90;;;4.20;;
15295;SDS011;7749;49.964;7.890;2023-04-25T08:04:37;6.77;;;4.23;;
15295;SDS011;7749;49.964;7.890;2023-04-25T08:07:06;4.77;;;3.60;;
15295;SDS011;7749;49.964;7.890;2023-04-25T08:09:33;4.07;;;3.30;;
15295;SDS011;7749;49.964;7.890;2023-04-25T08:12:03;9.50;;;4.07;;
15295;SDS011;7749;49.964;7.890;2023-04-25T08:14:31;6.00;;;3.23;;
15295;SDS011;7749;49.964;7.890;2023-04-25T08:17:03;7.10;;;3.20;;
15295;SDS011;7749;49.964;7.890;2023-04-25T08:19:33;7.83;;;3.23;;
15295;SDS011;7749;49.964;7.890;2023-04-25T08:22:03;7.07;;;2.77;;
15295;SDS011;7749;49.964;7.890;2023-04-25T08:24:31;6.73;;;3.60;;
15295;SDS011;7749;49.964;7.890;2023-04-25T08:26:59;8.07;;;3.23;;
15295;SDS011;7749;49.964;7.890;2023-04-25T08:29:26;5.63;;;3.10;;
15295;SDS011;7749;49.964;7.890;2023-04-25T08:31:57;5.33;;;3.10;;
15295;SDS011;7749;49.964;7.890;2023-04-25T08:34:24;5.47;;;3.43;;
15295;SDS011;7749;49.964;7.890;2023-04-25T08:36:52;6.57;;;3.60;;
15295;SDS011;7749;49.964;7.890;2023-04-25T08:39:20;10.87;;;4.20;;
15295;SDS011;7749;49.964;7.890;2023-04-25T08:41:48;7.10;;;3.90;;
15295;SDS011;7749;49.964;7.890;2023-04-25T08:44:16;6.97;;;3.50;;
15295;SDS011;7749;49.964;7.890;2023-04-25T08:46:44;8.40;;;4.00;;
15295;SDS011;7749;49.964;7.890;2023-04-25T08:49:17;8.30;;;3.90;;
15295;SDS011;7749;49.964;7.890;2023-04-25T08:51:46;8.73;;;4.00;;
15295;SDS011;7749;49.964;7.890;2023-04-25T08:54:18;9.77;;;4.17;;
15295;SDS011;7749;49.964;7.890;2023-04-25T08:57:02;8.27;;;4.10;;
15295;SDS011;7749;49.964;7.890;2023-04-25T08:59:31;6.60;;;3.93;;
15295;SDS011;7749;49.964;7.890;2023-04-25T09:02:00;6.43;;;4.20;;
15295;SDS011;7749;49.964;7.890;2023-04-25T09:04:30;7.23;;;4.43;;
15295;SDS011;7749;49.964;7.890;2023-04-25T09:06:58;7.20;;;3.87;;
15295;SDS011;7749;49.964;7.890;2023-04-25T09:09:26;9.90;;;4.20;;
15295;SDS011;7749;49.964;7.890;2023-04-25T09:11:54;7.13;;;4.30;;
15295;SDS011;7749;49.964;7.890;2023-04-25T09:14:22;6.83;;;3.93;;
15295;SDS011;7749;49.964;7.890;2023-04-25T09:19:24;8.23;;;4.60;;
15295;SDS011;7749;49.964;7.890;2023-04-25T09:22:07;8.67;;;4.20;;
15295;SDS011;7749;49.964;7.890;2023-04-25T09:24:44;6.23;;;4.10;;
15295;SDS011;7749;49.964;7.890;2023-04-25T09:27:20;9.70;;;4.27;;
15295;SDS011;7749;49.964;7.890;2023-04-25T09:29:57;6.30;;;4.20;;
15295;SDS011;7749;49.964;7.890;2023-04-25T09:32:28;7.37;;;4.03;;
15295;SDS011;7749;49.964;7.890;2023-04-25T09:34:57;7.03;;;3.87;;
15295;SDS011;7749;49.964;7.890;2023-04-25T09:37:28;6.93;;;4.43;;
15295;SDS011;7749;49.964;7.890;2023-04-25T09:39:58;6.40;;;4.13;;
15295;SDS011;7749;49.964;7.890;2023-04-25T09:42:29;8.93;;;4.53;;
15295;SDS011;7749;49.964;7.890;2023-04-25T09:45:03;8.37;;;4.70;;
15295;SDS011;7749;49.964;7.890;2023-04-25T09:47:31;7.73;;;4.30;;
15295;SDS011;7749;49.964;7.890;2023-04-25T09:50:05;8.33;;;4.30;;
15295;SDS011;7749;49.964;7.890;2023-04-25T09:53:01;7.70;;;4.47;;
15295;SDS011;7749;49.964;7.890;2023-04-25T09:55:35;8.43;;;4.60;;
15295;SDS011;7749;49.964;7.890;2023-04-25T09:58:05;7.77;;;4.30;;
15295;SDS011;7749;49.964;7.890;2023-04-25T10:00:35;8.83;;;4.67;;
15295;SDS011;7749;49.964;7.890;2023-04-25T10:03:04;9.10;;;4.20;;
15295;SDS011;7749;49.964;7.890;2023-04-25T10:05:33;8.57;;;4.27;;
15295;SDS011;7749;49.964;7.890;2023-04-25T10:08:02;7.73;;;4.57;;
15295;SDS011;7749;49.964;7.890;2023-04-25T10:10:34;9.40;;;4.13;;
15295;SDS011;7749;49.964;7.890;2023-04-25T10:13:07;8.73;;;4.07;;
15295;SDS011;7749;49.964;7.890;2023-04-25T10:15:40;9.23;;;3.83;;
15295;SDS011;7749;49.964;7.890;2023-04-25T10:18:11;11.37;;;3.67;;
15295;SDS011;7749;49.964;7.890;2023-04-25T10:20:40;6.10;;;3.60;;
15295;SDS011;7749;49.964;7.890;2023-04-25T10:23:12;6.97;;;3.67;;
15295;SDS011;7749;49.964;7.890;2023-04-25T10:25:54;6.83;;;3.63;;
15295;SDS011;7749;49.964;7.890;2023-04-25T10:28:24;9.97;;;4.00;;
15295;SDS011;7749;49.964;7.890;2023-04-25T10:33:37;8.27;;;4.07;;
15295;SDS011;7749;49.964;7.890;2023-04-25T10:38:42;12.83;;;4.63;;
15295;SDS011;7749;49.964;7.890;2023-04-25T10:41:14;8.37;;;4.13;;
15295;SDS011;7749;49.964;7.890;2023-04-25T10:43:46;10.37;;;4.57;;
15295;SDS011;7749;49.964;7.890;2023-04-25T10:48:49;7.10;;;3.77;;
15295;SDS011;7749;49.964;7.890;2023-04-25T10:51:22;9.50;;;3.73;;
15295;SDS011;7749;49.964;7.890;2023-04-25T10:53:56;9.20;;;3.10;;
15295;SDS011;7749;49.964;7.890;2023-04-25T10:56:31;7.90;;;3.60;;
15295;SDS011;7749;49.964;7.890;2023-04-25T11:09:40;6.53;;;3.60;;
15295;SDS011;7749;49.964;7.890;2023-04-25T11:12:08;9.83;;;3.73;;
15295;SDS011;7749;49.964;7.890;2023-04-25T11:14:38;11.73;;;4.13;;
15295;SDS011;7749;49.964;7.890;2023-04-25T11:17:11;10.70;;;4.20;;
15295;SDS011;7749;49.964;7.890;2023-04-25T11:19:39;6.67;;;3.80;;
15295;SDS011;7749;49.964;7.890;2023-04-25T11:22:06;7.77;;;4.20;;
15295;SDS011;7749;49.964;7.890;2023-04-25T11:24:35;11.03;;;4.90;;
15295;SDS011;7749;49.964;7.890;2023-04-25T11:27:03;8.40;;;4.23;;
15295;SDS011;7749;49.964;7.890;2023-04-25T11:29:35;10.00;;;4.57;;
15295;SDS011;7749;49.964;7.890;2023-04-25T11:32:02;6.73;;;4.20;;
15295;SDS011;7749;49.964;7.890;2023-04-25T11:34:31;8.77;;;4.00;;
15295;SDS011;7749;49.964;7.890;2023-04-25T11:37:00;6.50;;;3.33;;
15295;SDS011;7749;49.964;7.890;2023-04-25T11:39:30;5.67;;;3.17;;
15295;SDS011;7749;49.964;7.890;2023-04-25T11:41:58;6.70;;;2.97;;
15295;SDS011;7749;49.964;7.890;2023-04-25T11:44:28;8.30;;;2.85;;
15295;SDS011;7749;49.964;7.890;2023-04-25T11:46:56;5.50;;;2.95;;
15295;SDS011;7749;49.964;7.890;2023-04-25T11:49:24;6.53;;;2.77;;
15295;SDS011;7749;49.964;7.890;2023-04-25T11:51:58;7.33;;;2.90;;
15295;SDS011;7749;49.964;7.890;2023-04-25T11:54:26;6.93;;;3.00;;
15295;SDS011;7749;49.964;7.890;2023-04-25T11:56:55;5.87;;;2.90;;
15295;SDS011;7749;49.964;7.890;2023-04-25T11:59:24;6.67;;;2.77;;
15295;SDS011;7749;49.964;7.890;2023-04-25T12:01:52;8.73;;;3.23;;
15295;SDS011;7749;49.964;7.890;2023-04-25T12:04:21;6.27;;;2.83;;
15295;SDS011;7749;49.964;7.890;2023-04-25T12:06:51;9.67;;;3.10;;
15295;SDS011;7749;49.964;7.890;2023-04-25T12:09:21;12.27;;;3.40;;
15295;SDS011;7749;49.964;7.890;2023-04-25T12:11:56;7.43;;;3.17;;
15295;SDS011;7749;49.964;7.890;2023-04-25T12:14:26;6.23;;;2.93;;
15295;SDS011;7749;49.964;7.890;2023-04-25T12:16:56;5.90;;;3.17;;
15295;SDS011;7749;49.964;7.890;2023-04-25T12:19:32;7.80;;;2.90;;
15295;SDS011;7749;49.964;7.890;2023-04-25T12:22:01;9.70;;;3.97;;
15295;SDS011;7749;49.964;7.890;2023-04-25T12:24:33;4.83;;;2.07;;
15295;SDS011;7749;49.964;7.890;2023-04-25T12:27:05;5.72;;;2.10;;
15295;SDS011;7749;49.964;7.890;2023-04-25T12:29:35;5.90;;;1.90;;
15295;SDS011;7749;49.964;7.890;2023-04-25T12:32:15;4.57;;;1.98;;
15295;SDS011;7749;49.964;7.890;2023-04-25T12:34:44;6.65;;;1.88;;
15295;SDS011;7749;49.964;7.890;2023-04-25T12:37:12;4.93;;;2.40;;
15295;SDS011;7749;49.964;7.890;2023-04-25T12:39:40;2.83;;;1.67;;
15295;SDS011;7749;49.964;7.890;2023-04-25T12:42:10;3.70;;;2.10;;
15295;SDS011;7749;49.964;7.890;2023-04-25T12:44:39;3.83;;;1.70;;
15295;SDS011;7749;49.964;7.890;2023-04-25T12:47:07;4.72;;;2.70;;
15295;SDS011;7749;49.964;7.890;2023-04-25T12:49:36;5.47;;;2.22;;
15295;SDS011;7749;49.964;7.890;2023-04-25T12:52:04;4.60;;;1.70;;
15295;SDS011;7749;49.964;7.890;2023-04-25T12:54:32;4.75;;;2.00;;
15295;SDS011;7749;49.964;7.890;2023-04-25T12:56:59;5.13;;;2.30;;
15295;SDS011;7749;49.964;7.890;2023-04-25T12:59:29;6.18;;;2.13;;
15295;SDS011;7749;49.964;7.890;2023-04-25T13:01:57;6.50;;;2.17;;
15295;SDS011;7749;49.964;7.890;2023-04-25T13:04:28;3.83;;;1.90;;
15295;SDS011;7749;49.964;7.890;2023-04-25T13:06:56;5.25;;;2.20;;
15295;SDS011;7749;49.964;7.890;2023-04-25T13:09:23;7.63;;;2.00;;
15295;SDS011;7749;49.964;7.890;2023-04-25T13:11:51;6.28;;;2.28;;
15295;SDS011;7749;49.964;7.890;2023-04-25T13:14:23;4.45;;;1.80;;
15295;SDS011;7749;49.964;7.890;2023-04-25T13:16:51;4.32;;;1.90;;
15295;SDS011;7749;49.964;7.890;2023-04-25T13:19:21;5.75;;;2.05;;
15295;SDS011;7749;49.964;7.890;2023-04-25T13:21:49;5.55;;;2.03;;
15295;SDS011;7749;49.964;7.890;2023-04-25T13:24:17;3.80;;;2.20;;
15295;SDS011;7749;49.964;7.890;2023-04-25T13:26:45;3.72;;;2.08;;
15295;SDS011;7749;49.964;7.890;2023-04-25T13:29:15;5.93;;;2.70;;
15295;SDS011;7749;49.964;7.890;2023-04-25T13:31:43;4.57;;;2.55;;
15295;SDS011;7749;49.964;7.890;2023-04-25T13:34:14;4.75;;;1.90;;
15295;SDS011;7749;49.964;7.890;2023-04-25T13:36:42;4.23;;;2.40;;
15295;SDS011;7749;49.964;7.890;2023-04-25T13:39:09;5.67;;;3.00;;
15295;SDS011;7749;49.964;7.890;2023-04-25T13:41:38;7.03;;;2.80;;
15295;SDS011;7749;49.964;7.890;2023-04-25T13:44:06;6.97;;;2.67;;
15295;SDS011;7749;49.964;7.890;2023-04-25T13:46:33;5.33;;;2.23;;
15295;SDS011;7749;49.964;7.890;2023-04-25T13:49:13;9.33;;;2.77;;
15295;SDS011;7749;49.964;7.890;2023-04-25T13:51:41;4.97;;;2.33;;
15295;SDS011;7749;49.964;7.890;2023-04-25T13:54:09;8.03;;;2.33;;
15295;SDS011;7749;49.964;7.890;2023-04-25T13:56:37;6.60;;;2.47;;
15295;SDS011;7749;49.964;7.890;2023-04-25T13:59:05;8.50;;;2.70;;
15295;SDS011;7749;49.964;7.890;2023-04-25T14:01:33;8.93;;;2.60;;
15295;SDS011;7749;49.964;7.890;2023-04-25T14:04:02;5.77;;;2.27;;
15295;SDS011;7749;49.964;7.890;2023-04-25T14:06:33;9.90;;;2.30;;
15295;SDS011;7749;49.964;7.890;2023-04-25T14:09:02;6.10;;;2.30;;
15295;SDS011;7749;49.964;7.890;2023-04-25T14:11:31;4.27;;;2.00;;
15295;SDS011;7749;49.964;7.890;2023-04-25T14:13:59;5.57;;;2.30;;
15295;SDS011;7749;49.964;7.890;2023-04-25T14:16:30;4.40;;;2.10;;
15295;SDS011;7749;49.964;7.890;2023-04-25T14:19:18;5.20;;;2.47;;
15295;SDS011;7749;49.964;7.890;2023-04-25T14:21:48;3.07;;;2.00;;
15295;SDS011;7749;49.964;7.890;2023-04-25T14:24:17;6.87;;;2.20;;
15295;SDS011;7749;49.964;7.890;2023-04-25T14:26:45;7.73;;;2.37;;
15295;SDS011;7749;49.964;7.890;2023-04-25T14:29:13;5.50;;;2.13;;
15295;SDS011;7749;49.964;7.890;2023-04-25T14:31:41;4.73;;;2.20;;
15295;SDS011;7749;49.964;7.890;2023-04-25T14:34:08;6.37;;;2.30;;
15295;SDS011;7749;49.964;7.890;2023-04-25T14:36:36;6.47;;;1.90;;
15295;SDS011;7749;49.964;7.890;2023-04-25T14:39:04;5.20;;;2.17;;
15295;SDS011;7749;49.964;7.890;2023-04-25T14:41:34;5.77;;;2.30;;
15295;SDS011;7749;49.964;7.890;2023-04-25T14:44:02;5.83;;;2.60;;
15295;SDS011;7749;49.964;7.890;2023-04-25T14:46:30;5.93;;;2.70;;
15295;SDS011;7749;49.964;7.890;2023-04-25T14:48:58;4.97;;;2.23;;
15295;SDS011;7749;49.964;7.890;2023-04-25T14:51:29;6.43;;;2.53;;
15295;SDS011;7749;49.964;7.890;2023-04-25T14:53:58;9.50;;;2.90;;
15295;SDS011;7749;49.964;7.890;2023-04-25T14:56:25;7.90;;;2.50;;
15295;SDS011;7749;49.964;7.890;2023-04-25T14:58:53;7.23;;;2.40;;
15295;SDS011;7749;49.964;7.890;2023-04-25T15:01:21;6.80;;;2.70;;
15295;SDS011;7749;49.964;7.890;2023-04-25T15:03:49;9.37;;;2.30;;
15295;SDS011;7749;49.964;7.890;2023-04-25T15:06:20;8.47;;;4.10;;
15295;SDS011;7749;49.964;7.890;2023-04-25T15:08:48;6.33;;;2.50;;
15295;SDS011;7749;49.964;7.890;2023-04-25T15:11:16;5.27;;;2.87;;
15295;SDS011;7749;49.964;7.890;2023-04-25T15:13:44;8.63;;;2.37;;
15295;SDS011;7749;49.964;7.890;2023-04-25T15:16:12;5.43;;;2.60;;
15295;SDS011;7749;49.964;7.890;2023-04-25T15:18:39;4.77;;;2.00;;
15295;SDS011;7749;49.964;7.890;2023-04-25T15:21:07;5.17;;;2.10;;
15295;SDS011;7749;49.964;7.890;2023-04-25T15:23:35;7.00;;;2.50;;
15295;SDS011;7749;49.964;7.890;2023-04-25T15:26:03;5.67;;;2.37;;
15295;SDS011;7749;49.964;7.890;2023-04-25T15:28:31;6.03;;;2.10;;
15295;SDS011;7749;49.964;7.890;2023-04-25T15:31:02;5.97;;;2.40;;
15295;SDS011;7749;49.964;7.890;2023-04-25T15:33:30;6.05;;;2.67;;